Aeroporto :
LOGIN :

Iscrizione | Disclaimer

   EN    FR    IT 

 










Sommario :    VFR   VFR Marginale   IFR   IFR Intensivo   IFR Molto Intensivo
Visibilità : 
Base nubi : 
>= 8 km
>= 3000ft
5 / 8 km
1000 / 3000 ft
1500m / 5 km
500 / 1000 ft
800 / 1500m
200 / 500 ft
< 800m
< 200 ft
Simboli :   Temporali  Nebbia  Neve Forte  Precipitazioni Forti  Vento > 20 kt
SIGMETs :   Varie  Temporali  Ghiacco  Turbolenza  Onda orograficha  Ceneri Vulcaniche






- Altitudine del aeroporto : 27 ft
- Codice IATA : PMI


LEPA - Palma de Mallorca

ULTIMO METAR :
  • 161100Z 22011KT 9999 FEW018 29/24 Q1015 NOSIG

METARs OBSOLETI :
  • 161030Z 23011KT 9999 FEW018 29/24 Q1015 NOSIG
  • 161000Z 23009KT 9999 FEW018 29/24 Q1015 NOSIG
  • 160930Z 23009KT 9999 FEW018 29/23 Q1015 NOSIG
  • 160900Z 23007KT 9999 FEW018 29/23 Q1015 NOSIG
  • 160830Z 12002KT CAVOK 30/23 Q1015 NOSIG
  • 160800Z VRB02KT CAVOK 29/23 Q1015 NOSIG
  • 160730Z VRB02KT 9999 FEW018 27/23 Q1015 NOSIG
  • 160700Z VRB02KT 9999 FEW018 26/23 Q1014 NOSIG
  • 160630Z VRB02KT 9999 FEW018 26/24 Q1014 NOSIG

TAF TAF LEPA
Valido dal 16 a 06 ore il 17 a 06 ore UTC


160500Z 1606/1706 VRB04KT 9999 FEW040 TX32/1612Z TN23/1606Z
PROB40
TEMPO 1606/1608 4000 BR BKN010
BECMG 1610/1612 21012KT
TEMPO 1617/1621 VRB04KT
BECMG 1621/1623 06007KT
BECMG 1705/1706 06015G25KT



MetMap, La meteo Aeronautica in un colpo d'occhio ! - Copyright ORBIFLY Dicembre 2007 - Disclaimer

ORBIFLY MET'MAP TEAM :

Programmazione e sviluppo : Alexandra Zaïnal
Concezione : Baudouin d'Aumeries
Supporto tecnico e logistico : Manuel Goepfert
Aiuto : Marc-Olivier Méhu
Aiuto per la traduzione : Arnaldo La Scala




FONTI E CREDITI :

   NOAA